Time;durP1;ratioP1;P1;durP2;ratioP2;P2;SDS_P1;SDS_P2;PMS_P1;PMS_P2;Temp;Humidity;BMP_temperature;BMP_pressure;BME280_temperature;BME280_humidity;BME280_pressure;Samples;Min_cycle;Max_cycle;Signal;HPM_P1;HPM_P2
2023/03/06 00:00:03;;;;;;;16.30;9.20;;;;;;;;;;5078619;28;20216;-29
2023/03/06 00:02:31;;;;;;;16.80;8.60;;;;;;;;;;5069757;28;20204;-31
2023/03/06 00:04:58;;;;;;;16.83;9.90;;;;;;;;;;5070229;28;20208;-28
2023/03/06 00:07:25;;;;;;;17.73;9.30;;;;;;;;;;5070693;28;20217;-35
2023/03/06 00:09:53;;;;;;;16.03;9.17;;;;;;;;;;5077507;28;20524;-32
2023/03/06 00:12:20;;;;;;;26.07;10.90;;;;;;;;;;5069902;28;20391;-28
2023/03/06 00:14:47;;;;;;;19.33;10.07;;;;;;;;;;5074598;28;20219;-33
2023/03/06 00:17:14;;;;;;;20.00;9.70;;;;;;;;;;5079914;28;20221;-33
2023/03/06 00:19:42;;;;;;;25.87;11.00;;;;;;;;;;5089817;28;20204;-30
2023/03/06 00:22:10;;;;;;;14.80;9.37;;;;;;;;;;5083690;28;20212;-29
2023/03/06 00:24:37;;;;;;;16.43;9.53;;;;;;;;;;5076481;28;20212;-30
2023/03/06 00:27:06;;;;;;;17.67;9.73;;;;;;;;;;5078132;28;20588;-29
2023/03/06 00:29:33;;;;;;;16.50;9.53;;;;;;;;;;5078297;28;20231;-30
2023/03/06 00:32:00;;;;;;;15.57;8.43;;;;;;;;;;5081346;28;20197;-33
2023/03/06 00:34:27;;;;;;;17.33;9.47;;;;;;;;;;5069437;28;20276;-32
2023/03/06 00:36:54;;;;;;;15.23;8.37;;;;;;;;;;5069720;28;20686;-29
2023/03/06 00:39:22;;;;;;;16.40;8.97;;;;;;;;;;5076917;28;20216;-32
2023/03/06 00:41:49;;;;;;;14.77;8.90;;;;;;;;;;5084323;28;20566;-29
2023/03/06 00:44:18;;;;;;;18.13;10.03;;;;;;;;;;5075091;28;20205;-35
2023/03/06 00:46:45;;;;;;;19.53;9.17;;;;;;;;;;5082356;28;20221;-30
2023/03/06 00:49:12;;;;;;;17.30;9.77;;;;;;;;;;5087526;28;20213;-31
2023/03/06 00:51:39;;;;;;;18.83;9.23;;;;;;;;;;5089545;28;20204;-27
2023/03/06 00:54:06;;;;;;;17.57;9.63;;;;;;;;;;5074415;28;20212;-30
2023/03/06 00:56:33;;;;;;;14.30;8.60;;;;;;;;;;5075736;28;20224;-29
2023/03/06 00:59:00;;;;;;;12.63;8.70;;;;;;;;;;5076685;28;20205;-34
2023/03/06 01:01:29;;;;;;;17.57;9.93;;;;;;;;;;5073042;28;20201;-28
2023/03/06 01:03:56;;;;;;;18.67;11.13;;;;;;;;;;5084778;28;20197;-31
2023/03/06 01:06:23;;;;;;;19.47;10.30;;;;;;;;;;5089334;28;20246;-30
2023/03/06 01:08:50;;;;;;;14.53;8.97;;;;;;;;;;5081813;28;20216;-28
2023/03/06 01:11:18;;;;;;;18.57;10.13;;;;;;;;;;5087074;28;20201;-31
2023/03/06 01:13:45;;;;;;;14.33;9.03;;;;;;;;;;5076530;28;20194;-30
2023/03/06 01:16:14;;;;;;;16.30;9.53;;;;;;;;;;5083027;28;20219;-28
2023/03/06 01:18:43;;;;;;;20.37;10.30;;;;;;;;;;5068499;28;20197;-34
2023/03/06 01:21:10;;;;;;;15.60;9.53;;;;;;;;;;5069365;28;20221;-34
2023/03/06 01:23:37;;;;;;;17.07;9.67;;;;;;;;;;5071032;28;20197;-29
2023/03/06 01:26:04;;;;;;;20.80;10.20;;;;;;;;;;5080260;28;20213;-35
2023/03/06 01:28:32;;;;;;;18.10;10.03;;;;;;;;;;5080046;28;20405;-31
2023/03/06 01:31:00;;;;;;;17.97;9.93;;;;;;;;;;5088294;28;20201;-32
2023/03/06 01:33:27;;;;;;;16.50;9.03;;;;;;;;;;5068557;28;20197;-31
2023/03/06 01:35:56;;;;;;;19.07;9.43;;;;;;;;;;5067884;28;20656;-30
2023/03/06 01:38:23;;;;;;;17.27;9.37;;;;;;;;;;5076116;28;20217;-33
2023/03/06 01:40:50;;;;;;;17.23;9.50;;;;;;;;;;5076957;28;20206;-27
2023/03/06 01:43:26;;;;;;;18.67;9.87;;;;;;;;;;5070237;28;20651;-32
2023/03/06 01:46:14;;;;;;;18.53;10.17;;;;;;;;;;5072265;28;20269;-29
2023/03/06 01:48:41;;;;;;;18.33;9.70;;;;;;;;;;5040581;28;20205;-32
2023/03/06 01:51:10;;;;;;;13.63;8.63;;;;;;;;;;5068685;28;20202;-32
2023/03/06 01:53:37;;;;;;;12.53;8.73;;;;;;;;;;5081597;28;20210;-29
2023/03/06 01:56:05;;;;;;;19.77;10.17;;;;;;;;;;5080148;28;20197;-28
2023/03/06 01:58:32;;;;;;;17.50;10.57;;;;;;;;;;5089399;28;20201;-30
2023/03/06 02:00:59;;;;;;;14.40;8.73;;;;;;;;;;5079635;28;20239;-31
2023/03/06 02:03:27;;;;;;;16.57;9.90;;;;;;;;;;5073421;28;20205;-31
2023/03/06 02:05:54;;;;;;;16.30;9.97;;;;;;;;;;5078923;28;20208;-31
2023/03/06 02:08:24;;;;;;;16.90;9.43;;;;;;;;;;5092454;28;20210;-29
2023/03/06 02:10:57;;;;;;;17.27;9.73;;;;;;;;;;5088389;28;20228;-31
2023/03/06 02:13:24;;;;;;;19.53;10.23;;;;;;;;;;5084409;28;20204;-31
2023/03/06 02:15:52;;;;;;;16.03;9.97;;;;;;;;;;5076040;28;20221;-32
2023/03/06 02:18:19;;;;;;;19.60;9.60;;;;;;;;;;5090471;28;20229;-29
2023/03/06 02:20:49;;;;;;;17.53;9.43;;;;;;;;;;5088796;28;20205;-30
2023/03/06 02:23:19;;;;;;;16.10;8.67;;;;;;;;;;5082741;28;20205;-32
2023/03/06 02:25:48;;;;;;;12.93;8.70;;;;;;;;;;5077903;28;20219;-29
2023/03/06 02:28:18;;;;;;;17.67;8.57;;;;;;;;;;5082573;28;20644;-28
2023/03/06 02:30:45;;;;;;;15.10;8.07;;;;;;;;;;5071192;28;20236;-29
2023/03/06 02:33:14;;;;;;;17.60;9.23;;;;;;;;;;5071308;28;20560;-27
2023/03/06 02:35:41;;;;;;;13.67;8.97;;;;;;;;;;5071640;28;20212;-30
2023/03/06 02:38:09;;;;;;;18.13;10.40;;;;;;;;;;5071141;28;20495;-32
2023/03/06 02:40:36;;;;;;;19.53;10.60;;;;;;;;;;5075924;28;20189;-36
2023/03/06 02:43:05;;;;;;;20.33;9.63;;;;;;;;;;5087687;28;20216;-32
2023/03/06 02:45:35;;;;;;;19.17;9.87;;;;;;;;;;5084847;28;20208;-32
2023/03/06 02:48:02;;;;;;;13.37;8.67;;;;;;;;;;5082912;28;20237;-30
2023/03/06 02:50:29;;;;;;;19.07;9.80;;;;;;;;;;5091326;28;20228;-34
2023/03/06 02:52:56;;;;;;;15.87;8.73;;;;;;;;;;5075854;28;20213;-32
2023/03/06 02:55:24;;;;;;;18.23;9.37;;;;;;;;;;5087898;28;20197;-30
2023/03/06 02:57:51;;;;;;;15.90;8.50;;;;;;;;;;5073291;28;20224;-31
2023/03/06 03:00:20;;;;;;;17.83;9.20;;;;;;;;;;5078192;28;20207;-34
2023/03/06 03:02:47;;;;;;;16.80;9.80;;;;;;;;;;5084875;28;20258;-30
2023/03/06 03:05:15;;;;;;;18.13;10.27;;;;;;;;;;5091134;28;20216;-32
2023/03/06 03:07:42;;;;;;;15.07;8.97;;;;;;;;;;5087588;28;20221;-29
2023/03/06 03:10:10;;;;;;;15.87;8.80;;;;;;;;;;5079355;28;20221;-29
2023/03/06 03:12:37;;;;;;;16.30;9.30;;;;;;;;;;5073293;28;20204;-32
2023/03/06 03:15:04;;;;;;;18.47;9.73;;;;;;;;;;5078895;28;20464;-30
2023/03/06 03:17:33;;;;;;;17.57;9.37;;;;;;;;;;5163638;22;20265;-34
2023/03/06 03:20:00;;;;;;;20.13;10.53;;;;;;;;;;5050824;28;20209;-30
2023/03/06 03:22:27;;;;;;;20.43;10.87;;;;;;;;;;5057975;28;20213;-30
2023/03/06 03:24:54;;;;;;;16.07;10.13;;;;;;;;;;5068505;28;20218;-29
2023/03/06 03:27:21;;;;;;;17.17;9.97;;;;;;;;;;5051835;28;20244;-33
2023/03/06 03:29:48;;;;;;;17.37;8.83;;;;;;;;;;5059606;28;20221;-31
2023/03/06 03:32:15;;;;;;;16.33;9.57;;;;;;;;;;5067255;28;20627;-31
2023/03/06 03:34:43;;;;;;;18.60;9.77;;;;;;;;;;5051020;28;20224;-32
2023/03/06 03:37:11;;;;;;;15.37;7.93;;;;;;;;;;5058710;28;20234;-28
2023/03/06 03:39:38;;;;;;;15.33;8.87;;;;;;;;;;5072026;28;20197;-32
2023/03/06 03:42:05;;;;;;;16.03;9.67;;;;;;;;;;5055396;28;20206;-29
2023/03/06 03:44:32;;;;;;;18.63;9.77;;;;;;;;;;5057374;28;20201;-29
2023/03/06 03:46:59;;;;;;;15.70;9.27;;;;;;;;;;5050483;28;20222;-27
2023/03/06 03:49:26;;;;;;;17.03;8.53;;;;;;;;;;5049774;28;20762;-29
2023/03/06 03:51:55;;;;;;;17.53;8.60;;;;;;;;;;5048680;28;20206;-30
2023/03/06 03:54:22;;;;;;;17.57;8.87;;;;;;;;;;5060843;28;20206;-31
2023/03/06 03:56:49;;;;;;;19.20;9.43;;;;;;;;;;5069617;28;20232;-32
2023/03/06 03:59:16;;;;;;;17.97;9.57;;;;;;;;;;5059035;28;20213;-30
2023/03/06 04:01:44;;;;;;;15.97;9.10;;;;;;;;;;5055812;28;20212;-31
2023/03/06 04:04:11;;;;;;;20.07;9.40;;;;;;;;;;5049272;28;20205;-35
2023/03/06 04:06:38;;;;;;;15.57;8.00;;;;;;;;;;5050584;28;20802;-31
2023/03/06 04:09:07;;;;;;;15.27;8.53;;;;;;;;;;5061589;28;20198;-32
2023/03/06 04:11:34;;;;;;;15.60;8.77;;;;;;;;;;5060897;28;20228;-29
2023/03/06 04:14:02;;;;;;;13.07;8.10;;;;;;;;;;5057771;28;20576;-32
2023/03/06 04:16:29;;;;;;;15.87;8.33;;;;;;;;;;5048937;28;20473;-30
2023/03/06 04:18:56;;;;;;;15.70;8.40;;;;;;;;;;5049360;28;20202;-30
2023/03/06 04:21:23;;;;;;;18.23;9.40;;;;;;;;;;5049778;28;20320;-30
2023/03/06 04:23:50;;;;;;;15.60;8.83;;;;;;;;;;5049825;28;20218;-29
2023/03/06 04:26:19;;;;;;;14.43;8.13;;;;;;;;;;5063756;28;20224;-33
2023/03/06 04:28:46;;;;;;;12.97;7.93;;;;;;;;;;5048967;28;20660;-28
2023/03/06 04:31:13;;;;;;;14.80;9.07;;;;;;;;;;5059142;28;20226;-31
2023/03/06 04:33:40;;;;;;;16.40;9.20;;;;;;;;;;5069148;28;20193;-30
2023/03/06 04:36:08;;;;;;;17.33;8.93;;;;;;;;;;5067196;28;20341;-31
2023/03/06 04:38:35;;;;;;;16.40;9.23;;;;;;;;;;5066926;28;20671;-32
2023/03/06 04:41:02;;;;;;;15.47;8.90;;;;;;;;;;5053418;28;20198;-31
2023/03/06 04:43:30;;;;;;;15.27;9.20;;;;;;;;;;5052240;28;20201;-27
2023/03/06 04:45:58;;;;;;;16.17;8.43;;;;;;;;;;5060702;28;20216;-31
2023/03/06 04:48:25;;;;;;;16.13;8.97;;;;;;;;;;5058924;28;20201;-34
2023/03/06 04:50:53;;;;;;;15.60;9.13;;;;;;;;;;5050144;28;20225;-29
2023/03/06 04:53:20;;;;;;;15.17;8.30;;;;;;;;;;5051824;28;20302;-31
2023/03/06 04:55:47;;;;;;;19.43;9.73;;;;;;;;;;5063769;28;20205;-29
2023/03/06 04:58:14;;;;;;;14.33;8.57;;;;;;;;;;5052470;28;20228;-37
2023/03/06 05:00:43;;;;;;;12.70;7.97;;;;;;;;;;5058635;28;20202;-30
2023/03/06 05:03:11;;;;;;;15.97;8.70;;;;;;;;;;5058674;28;20290;-30
2023/03/06 05:05:38;;;;;;;13.93;9.03;;;;;;;;;;5069847;28;20216;-30
2023/03/06 05:08:05;;;;;;;14.37;8.80;;;;;;;;;;5061935;28;20581;-34
2023/03/06 05:10:33;;;;;;;14.63;8.67;;;;;;;;;;5054916;28;20220;-33
2023/03/06 05:13:00;;;;;;;16.97;9.40;;;;;;;;;;5055383;28;20263;-30
2023/03/06 05:15:27;;;;;;;16.10;8.70;;;;;;;;;;5056058;28;20278;-32
2023/03/06 05:17:55;;;;;;;14.53;7.77;;;;;;;;;;5053928;28;20264;-28
2023/03/06 05:20:23;;;;;;;13.63;8.80;;;;;;;;;;5049516;28;20202;-33
2023/03/06 05:22:50;;;;;;;20.17;10.23;;;;;;;;;;5051960;28;20205;-29
2023/03/06 05:25:18;;;;;;;16.13;8.97;;;;;;;;;;5059879;28;20198;-28
2023/03/06 05:27:45;;;;;;;16.57;9.13;;;;;;;;;;5058957;28;20713;-31
2023/03/06 05:30:13;;;;;;;19.43;9.10;;;;;;;;;;5055399;28;20647;-30
2023/03/06 05:32:40;;;;;;;19.93;9.00;;;;;;;;;;5064174;28;20201;-29
2023/03/06 05:35:09;;;;;;;12.37;8.00;;;;;;;;;;5073203;28;20604;-29
2023/03/06 05:37:36;;;;;;;14.60;8.87;;;;;;;;;;5061358;28;20512;-30
2023/03/06 05:40:07;;;;;;;17.93;8.40;;;;;;;;;;5060794;28;20236;-33
2023/03/06 05:42:34;;;;;;;13.87;8.57;;;;;;;;;;5071309;28;20205;-32
2023/03/06 05:45:03;;;;;;;15.37;9.07;;;;;;;;;;5062804;28;20198;-31
2023/03/06 05:47:30;;;;;;;14.23;9.10;;;;;;;;;;5060568;28;20218;-29
2023/03/06 05:49:57;;;;;;;17.90;9.13;;;;;;;;;;5052759;28;20201;-31
2023/03/06 05:52:26;;;;;;;15.63;8.80;;;;;;;;;;5052569;28;20198;-34
2023/03/06 05:54:54;;;;;;;16.13;9.43;;;;;;;;;;5065401;28;20217;-29
2023/03/06 05:57:21;;;;;;;16.17;9.23;;;;;;;;;;5071880;28;20228;-33
2023/03/06 05:59:49;;;;;;;17.27;9.27;;;;;;;;;;5059057;28;20227;-33
2023/03/06 06:02:16;;;;;;;14.37;8.17;;;;;;;;;;5060511;28;20202;-33
2023/03/06 06:04:44;;;;;;;14.60;8.63;;;;;;;;;;5052848;28;20572;-31
2023/03/06 06:07:13;;;;;;;16.57;9.20;;;;;;;;;;5055010;28;20245;-32
2023/03/06 06:09:42;;;;;;;20.50;9.37;;;;;;;;;;5060173;28;20206;-28
2023/03/06 06:12:09;;;;;;;20.23;9.40;;;;;;;;;;5053025;28;20308;-32
2023/03/06 06:14:36;;;;;;;13.63;8.57;;;;;;;;;;5061382;28;20197;-35
2023/03/06 06:17:04;;;;;;;17.23;9.53;;;;;;;;;;5069302;28;20247;-30
2023/03/06 06:19:31;;;;;;;16.07;9.17;;;;;;;;;;5074888;28;20208;-28
2023/03/06 06:22:01;;;;;;;15.73;9.23;;;;;;;;;;5066492;28;20805;-32
2023/03/06 06:24:28;;;;;;;15.77;8.83;;;;;;;;;;5066064;28;20209;-33
2023/03/06 06:26:57;;;;;;;19.70;8.63;;;;;;;;;;5074778;28;20225;-28
2023/03/06 06:29:25;;;;;;;18.37;9.90;;;;;;;;;;5061943;28;20300;-30
2023/03/06 06:31:53;;;;;;;15.03;9.03;;;;;;;;;;5068219;28;20228;-30
2023/03/06 06:34:20;;;;;;;24.07;10.27;;;;;;;;;;5071896;28;20194;-30
2023/03/06 06:36:47;;;;;;;19.73;10.53;;;;;;;;;;5070070;28;20225;-27
2023/03/06 06:39:16;;;;;;;20.37;10.33;;;;;;;;;;5057949;28;20203;-30
2023/03/06 06:41:43;;;;;;;17.87;9.47;;;;;;;;;;5053759;28;20198;-27
2023/03/06 06:44:14;;;;;;;13.77;9.30;;;;;;;;;;5056025;28;20204;-33
2023/03/06 06:46:44;;;;;;;17.60;9.07;;;;;;;;;;5067286;28;20221;-28
2023/03/06 06:49:11;;;;;;;14.17;8.50;;;;;;;;;;5055810;28;20205;-33
2023/03/06 06:51:38;;;;;;;18.77;9.23;;;;;;;;;;5053019;28;20225;-31
2023/03/06 06:54:06;;;;;;;20.23;9.87;;;;;;;;;;5058109;28;20250;-31
2023/03/06 06:56:33;;;;;;;16.73;9.47;;;;;;;;;;5053056;28;20217;-29
2023/03/06 06:59:00;;;;;;;17.60;9.67;;;;;;;;;;5062224;28;20567;-33
2023/03/06 07:01:31;;;;;;;22.03;10.13;;;;;;;;;;5058060;28;20193;-30
2023/03/06 07:03:58;;;;;;;16.93;9.80;;;;;;;;;;5069666;28;20232;-32
2023/03/06 07:06:25;;;;;;;18.93;9.73;;;;;;;;;;5068721;28;20218;-26
2023/03/06 07:08:52;;;;;;;14.30;8.33;;;;;;;;;;5066323;28;20293;-29
2023/03/06 07:11:20;;;;;;;18.27;9.63;;;;;;;;;;5072109;28;20567;-30
2023/03/06 07:13:47;;;;;;;18.93;10.17;;;;;;;;;;5066194;28;20211;-27
2023/03/06 07:16:16;;;;;;;19.07;9.60;;;;;;;;;;5061851;28;20256;-29
2023/03/06 07:18:44;;;;;;;18.53;9.33;;;;;;;;;;5053550;28;20209;-30
2023/03/06 07:21:11;;;;;;;19.20;10.10;;;;;;;;;;5053932;28;20201;-27
2023/03/06 07:23:38;;;;;;;17.30;8.73;;;;;;;;;;5072986;28;20209;-29
2023/03/06 07:26:06;;;;;;;18.63;10.03;;;;;;;;;;5073351;28;20225;-26
2023/03/06 07:28:33;;;;;;;15.77;9.57;;;;;;;;;;5069069;28;20202;-27
2023/03/06 07:31:00;;;;;;;19.07;10.23;;;;;;;;;;5068605;28;20232;-31
2023/03/06 07:33:27;;;;;;;17.17;9.67;;;;;;;;;;5061229;28;20476;-27
2023/03/06 07:35:55;;;;;;;17.80;9.50;;;;;;;;;;5051870;28;20201;-31
2023/03/06 07:38:22;;;;;;;16.17;9.30;;;;;;;;;;5055844;28;20553;-30
2023/03/06 07:40:53;;;;;;;17.40;9.97;;;;;;;;;;5059039;28;20204;-30
2023/03/06 07:43:20;;;;;;;20.43;10.67;;;;;;;;;;5069432;28;20205;-29
2023/03/06 07:45:48;;;;;;;22.53;10.73;;;;;;;;;;5061627;28;20205;-30
2023/03/06 07:48:15;;;;;;;19.27;10.23;;;;;;;;;;5060342;28;20353;-31
2023/03/06 07:50:42;;;;;;;18.87;10.40;;;;;;;;;;5051065;28;20198;-31
2023/03/06 07:53:10;;;;;;;20.63;10.63;;;;;;;;;;5063927;28;20202;-29
2023/03/06 07:55:40;;;;;;;17.43;10.07;;;;;;;;;;5064653;28;20190;-34
2023/03/06 07:58:07;;;;;;;17.47;10.37;;;;;;;;;;5068778;28;20225;-28
2023/03/06 08:00:34;;;;;;;15.67;9.27;;;;;;;;;;5072280;28;20193;-29
2023/03/06 08:03:01;;;;;;;18.60;9.97;;;;;;;;;;5064320;28;20202;-30
2023/03/06 08:05:28;;;;;;;17.17;10.43;;;;;;;;;;5052858;28;20209;-30
2023/03/06 08:07:56;;;;;;;21.63;9.93;;;;;;;;;;5057638;28;20218;-31
2023/03/06 08:10:33;;;;;;;20.93;10.17;;;;;;;;;;5069170;28;20212;-33
2023/03/06 08:13:01;;;;;;;17.20;9.67;;;;;;;;;;5068068;28;20212;-27
2023/03/06 08:15:28;;;;;;;18.17;9.70;;;;;;;;;;5067729;28;20489;-29
2023/03/06 08:17:55;;;;;;;15.50;10.20;;;;;;;;;;5056847;28;20230;-30
2023/03/06 08:20:22;;;;;;;18.10;9.97;;;;;;;;;;5052405;28;20210;-29
2023/03/06 08:22:50;;;;;;;20.10;10.80;;;;;;;;;;5053174;28;20550;-33
2023/03/06 08:25:17;;;;;;;22.30;10.33;;;;;;;;;;5059698;28;20201;-28
2023/03/06 08:27:45;;;;;;;14.50;8.90;;;;;;;;;;5051864;28;20236;-29
2023/03/06 08:30:14;;;;;;;18.90;9.30;;;;;;;;;;5066607;28;20193;-29
2023/03/06 08:32:41;;;;;;;15.67;9.63;;;;;;;;;;5058057;28;20267;-28
2023/03/06 08:35:09;;;;;;;17.13;9.67;;;;;;;;;;5052255;28;20236;-27
2023/03/06 08:37:36;;;;;;;16.57;9.27;;;;;;;;;;5063616;28;20223;-30
2023/03/06 08:40:04;;;;;;;17.60;9.33;;;;;;;;;;5059959;28;20201;-28
2023/03/06 08:42:31;;;;;;;15.47;8.70;;;;;;;;;;5070251;28;20201;-30
2023/03/06 08:44:58;;;;;;;14.10;6.77;;;;;;;;;;5063193;28;20202;-31
2023/03/06 08:47:27;;;;;;;15.93;9.43;;;;;;;;;;5051813;28;20226;-30
2023/03/06 08:49:54;;;;;;;18.17;9.87;;;;;;;;;;5051790;28;20202;-29
2023/03/06 08:52:21;;;;;;;17.23;9.17;;;;;;;;;;5052498;28;20218;-32
2023/03/06 08:54:48;;;;;;;14.53;8.93;;;;;;;;;;5070996;28;20215;-28
2023/03/06 08:57:16;;;;;;;15.40;8.67;;;;;;;;;;5069674;28;20228;-31
2023/03/06 08:59:43;;;;;;;16.57;8.97;;;;;;;;;;5063977;28;20232;-27
2023/03/06 09:02:13;;;;;;;15.17;8.70;;;;;;;;;;5054507;28;20641;-31
2023/03/06 09:04:45;;;;;;;13.37;8.10;;;;;;;;;;5055699;28;20229;-29
2023/03/06 09:07:12;;;;;;;12.53;7.93;;;;;;;;;;5063768;28;20221;-27
2023/03/06 09:09:39;;;;;;;13.63;7.63;;;;;;;;;;5063753;28;20510;-32
2023/03/06 09:12:06;;;;;;;13.70;8.50;;;;;;;;;;5072457;28;20224;-33
2023/03/06 09:14:34;;;;;;;11.20;7.17;;;;;;;;;;5060664;28;20204;-32
2023/03/06 09:17:01;;;;;;;12.33;7.97;;;;;;;;;;5318281;22;20508;-31
2023/03/06 09:19:28;;;;;;;10.10;7.07;;;;;;;;;;5072883;28;20208;-31
2023/03/06 09:21:56;;;;;;;10.77;6.83;;;;;;;;;;5074042;28;20259;-29
2023/03/06 09:24:23;;;;;;;13.40;7.03;;;;;;;;;;5078142;28;20488;-29
2023/03/06 09:26:51;;;;;;;14.03;8.30;;;;;;;;;;5088078;28;20227;-29
2023/03/06 09:29:18;;;;;;;11.97;6.93;;;;;;;;;;5078217;28;20681;-29
2023/03/06 09:31:45;;;;;;;8.33;5.30;;;;;;;;;;5087096;28;20227;-29
2023/03/06 09:34:12;;;;;;;10.97;6.73;;;;;;;;;;5072938;28;20208;-29
2023/03/06 09:36:40;;;;;;;11.50;6.93;;;;;;;;;;5072835;28;20228;-30
2023/03/06 09:39:09;;;;;;;11.43;6.23;;;;;;;;;;5075009;28;20258;-27
2023/03/06 09:41:40;;;;;;;10.03;6.33;;;;;;;;;;5078261;28;20235;-30
2023/03/06 09:44:13;;;;;;;9.50;6.67;;;;;;;;;;5085288;28;20211;-28
2023/03/06 09:46:45;;;;;;;11.17;6.20;;;;;;;;;;5086243;28;20312;-31
2023/03/06 09:49:17;;;;;;;9.77;6.27;;;;;;;;;;5074656;28;20606;-30
2023/03/06 09:51:51;;;;;;;8.57;5.67;;;;;;;;;;5071309;28;20316;-32
2023/03/06 09:54:20;;;;;;;8.70;5.57;;;;;;;;;;5084373;28;20205;-30
2023/03/06 09:56:49;;;;;;;9.90;5.40;;;;;;;;;;5086606;28;20225;-28
2023/03/06 09:59:18;;;;;;;9.23;5.67;;;;;;;;;;5076390;28;20292;-31
2023/03/06 10:01:50;;;;;;;11.33;5.60;;;;;;;;;;5078189;28;20239;-28
2023/03/06 10:04:29;;;;;;;9.13;4.73;;;;;;;;;;5092500;28;20208;-28
2023/03/06 10:06:57;;;;;;;8.27;5.37;;;;;;;;;;5079350;28;20721;-29
2023/03/06 10:09:28;;;;;;;7.57;5.13;;;;;;;;;;5082320;28;20223;-27
2023/03/06 10:11:57;;;;;;;9.23;5.47;;;;;;;;;;5071880;28;20219;-28
2023/03/06 10:14:29;;;;;;;7.43;4.80;;;;;;;;;;5076661;28;20205;-28
2023/03/06 10:16:57;;;;;;;8.20;5.30;;;;;;;;;;5088036;28;20228;-29
2023/03/06 10:19:26;;;;;;;6.00;4.30;;;;;;;;;;5091981;28;20539;-28
2023/03/06 10:21:57;;;;;;;10.70;4.43;;;;;;;;;;5082434;28;20201;-29
2023/03/06 10:24:30;;;;;;;6.73;4.83;;;;;;;;;;5086232;28;20310;-31
2023/03/06 10:27:00;;;;;;;5.00;3.13;;;;;;;;;;5088084;28;20223;-28
2023/03/06 10:29:36;;;;;;;7.00;3.80;;;;;;;;;;5082316;28;20223;-32
2023/03/06 10:32:09;;;;;;;8.23;4.50;;;;;;;;;;5079953;28;20221;-29
2023/03/06 10:34:38;;;;;;;9.30;4.53;;;;;;;;;;5072058;28;20632;-30
2023/03/06 10:37:10;;;;;;;6.50;4.90;;;;;;;;;;5073627;28;20694;-29
2023/03/06 10:39:40;;;;;;;5.67;4.07;;;;;;;;;;5084779;28;20204;-31
2023/03/06 10:42:08;;;;;;;4.67;3.03;;;;;;;;;;5083255;28;20204;-29
2023/03/06 10:44:35;;;;;;;7.70;4.13;;;;;;;;;;5080310;28;20234;-28
2023/03/06 10:47:22;;;;;;;6.27;4.50;;;;;;;;;;5088125;28;20221;-30
2023/03/06 10:49:58;;;;;;;7.33;4.20;;;;;;;;;;5071532;28;20220;-30
2023/03/06 10:52:29;;;;;;;5.70;3.97;;;;;;;;;;5083939;28;20209;-31
2023/03/06 10:55:13;;;;;;;10.27;5.87;;;;;;;;;;5091659;28;20676;-30
2023/03/06 10:57:41;;;;;;;13.03;7.13;;;;;;;;;;5088894;28;20565;-30
2023/03/06 11:00:24;;;;;;;11.57;6.40;;;;;;;;;;5075909;28;20453;-31
2023/03/06 11:03:06;;;;;;;8.77;6.47;;;;;;;;;;5079925;28;20197;-29
2023/03/06 11:05:33;;;;;;;11.53;6.30;;;;;;;;;;5071769;28;20205;-28
2023/03/06 11:08:01;;;;;;;9.43;5.97;;;;;;;;;;5077444;28;20229;-32
2023/03/06 11:10:30;;;;;;;9.83;6.43;;;;;;;;;;5083384;28;20222;-30
2023/03/06 11:12:58;;;;;;;8.37;5.63;;;;;;;;;;5089002;28;20221;-32
2023/03/06 11:15:26;;;;;;;9.37;5.57;;;;;;;;;;5079215;28;20204;-28
2023/03/06 11:17:57;;;;;;;8.33;4.80;;;;;;;;;;5092100;28;20701;-28
2023/03/06 11:20:25;;;;;;;7.07;4.53;;;;;;;;;;5089094;28;20205;-31
2023/03/06 11:22:55;;;;;;;9.10;5.87;;;;;;;;;;5086304;28;20201;-31
2023/03/06 11:25:23;;;;;;;8.50;5.67;;;;;;;;;;5079986;28;20205;-26
2023/03/06 11:27:56;;;;;;;9.80;6.60;;;;;;;;;;5074057;28;20236;-31
2023/03/06 11:30:26;;;;;;;7.80;5.30;;;;;;;;;;5085713;28;20682;-27
2023/03/06 11:32:55;;;;;;;7.23;5.43;;;;;;;;;;5080149;28;20713;-29
2023/03/06 11:35:24;;;;;;;8.10;5.80;;;;;;;;;;5091742;28;20200;-31
2023/03/06 11:37:56;;;;;;;10.57;5.07;;;;;;;;;;5078541;28;20230;-30
2023/03/06 11:40:25;;;;;;;9.43;5.07;;;;;;;;;;5074757;28;20248;-32
2023/03/06 11:42:56;;;;;;;9.43;5.53;;;;;;;;;;5069284;28;20201;-27
2023/03/06 11:45:28;;;;;;;11.73;5.30;;;;;;;;;;5073998;28;20213;-31
2023/03/06 11:48:00;;;;;;;9.47;5.63;;;;;;;;;;5070926;28;20221;-30
2023/03/06 11:50:31;;;;;;;9.63;6.00;;;;;;;;;;5070999;28;20213;-31
2023/03/06 11:53:00;;;;;;;9.50;6.10;;;;;;;;;;5069780;28;20595;-31
2023/03/06 11:55:32;;;;;;;10.20;6.13;;;;;;;;;;5076307;28;20212;-28
2023/03/06 11:58:04;;;;;;;9.60;6.63;;;;;;;;;;5077358;28;20236;-29
2023/03/06 12:00:42;;;;;;;11.27;7.00;;;;;;;;;;5078624;28;20204;-31
2023/03/06 12:03:24;;;;;;;9.87;6.73;;;;;;;;;;5087611;28;20199;-33
2023/03/06 12:05:56;;;;;;;8.50;6.17;;;;;;;;;;5090871;28;20216;-27
2023/03/06 12:08:29;;;;;;;8.83;6.27;;;;;;;;;;5080289;28;20581;-29
2023/03/06 12:10:58;;;;;;;8.67;5.53;;;;;;;;;;5075146;28;20288;-27
2023/03/06 12:13:42;;;;;;;8.33;5.63;;;;;;;;;;5073107;28;20220;-29
2023/03/06 12:16:24;;;;;;;8.23;5.53;;;;;;;;;;5087821;28;20201;-29
2023/03/06 12:18:59;;;;;;;10.80;5.57;;;;;;;;;;5085778;28;20760;-33
2023/03/06 12:21:31;;;;;;;10.07;7.10;;;;;;;;;;5079885;28;20209;-32
2023/03/06 12:24:12;;;;;;;8.03;5.30;;;;;;;;;;5078158;28;20623;-29
2023/03/06 12:26:51;;;;;;;8.57;6.10;;;;;;;;;;5083616;28;20667;-28
2023/03/06 12:29:22;;;;;;;10.70;6.27;;;;;;;;;;5084383;28;20219;-30
2023/03/06 12:32:00;;;;;;;9.00;5.70;;;;;;;;;;5070584;28;20211;-32
2023/03/06 12:34:46;;;;;;;11.50;6.00;;;;;;;;;;5090616;28;20212;-27
2023/03/06 12:37:19;;;;;;;8.17;5.63;;;;;;;;;;5073380;28;20229;-32
2023/03/06 12:39:55;;;;;;;7.03;4.50;;;;;;;;;;5078325;28;20658;-30
2023/03/06 12:42:30;;;;;;;6.63;4.33;;;;;;;;;;5090961;28;20196;-31
2023/03/06 12:45:03;;;;;;;5.27;3.77;;;;;;;;;;5069877;28;20314;-30
2023/03/06 12:47:36;;;;;;;6.27;4.27;;;;;;;;;;5073918;28;20250;-28
2023/03/06 12:50:13;;;;;;;5.80;4.40;;;;;;;;;;5090451;28;20189;-28
2023/03/06 12:52:41;;;;;;;7.67;3.93;;;;;;;;;;5086457;28;20224;-33
2023/03/06 12:55:09;;;;;;;6.17;4.07;;;;;;;;;;5071741;28;20205;-30
2023/03/06 12:57:36;;;;;;;6.03;4.30;;;;;;;;;;5069261;28;20232;-26
2023/03/06 13:00:03;;;;;;;6.37;3.97;;;;;;;;;;5080129;28;20296;-29
2023/03/06 13:02:57;;;;;;;5.03;3.80;;;;;;;;;;5073234;28;20749;-30
2023/03/06 13:05:34;;;;;;;6.70;4.70;;;;;;;;;;5090324;28;20287;-31
2023/03/06 13:08:09;;;;;;;5.97;4.37;;;;;;;;;;5083653;28;20224;-32
2023/03/06 13:10:37;;;;;;;5.13;3.80;;;;;;;;;;5072879;28;20211;-29
2023/03/06 13:13:05;;;;;;;6.20;4.07;;;;;;;;;;5069494;28;20218;-28
2023/03/06 13:15:39;;;;;;;6.03;3.93;;;;;;;;;;5084809;28;20209;-31
2023/03/06 13:18:21;;;;;;;9.37;4.37;;;;;;;;;;5081768;28;20224;-30
2023/03/06 13:20:50;;;;;;;7.50;4.57;;;;;;;;;;5090100;28;20835;-30
2023/03/06 13:23:32;;;;;;;6.60;4.20;;;;;;;;;;5076364;28;20238;-29
2023/03/06 13:26:00;;;;;;;8.37;4.43;;;;;;;;;;5073108;28;20207;-30
2023/03/06 13:28:39;;;;;;;6.20;4.93;;;;;;;;;;5070958;28;20215;-27
2023/03/06 13:31:07;;;;;;;6.07;4.00;;;;;;;;;;5077779;28;20208;-34
2023/03/06 13:34:04;;;;;;;5.30;3.77;;;;;;;;;;5069202;28;20232;-28
2023/03/06 13:36:33;;;;;;;5.67;3.67;;;;;;;;;;5046848;28;20711;-31
2023/03/06 13:39:01;;;;;;;6.73;3.97;;;;;;;;;;5072582;28;20208;-29
2023/03/06 13:41:36;;;;;;;5.90;4.27;;;;;;;;;;5081853;28;20203;-29
2023/03/06 13:44:06;;;;;;;6.40;4.47;;;;;;;;;;5082726;28;20208;-32
2023/03/06 13:46:35;;;;;;;5.30;3.83;;;;;;;;;;5085239;28;20732;-31
2023/03/06 13:49:06;;;;;;;5.73;4.07;;;;;;;;;;5070837;28;20706;-29
2023/03/06 13:51:36;;;;;;;5.47;4.13;;;;;;;;;;5080010;28;20642;-30
2023/03/06 13:54:26;;;;;;;4.73;3.73;;;;;;;;;;5085397;28;20711;-29
2023/03/06 13:57:11;;;;;;;5.17;3.80;;;;;;;;;;5088519;28;20240;-29
2023/03/06 14:00:09;;;;;;;5.40;3.67;;;;;;;;;;5080093;28;20295;-29
2023/03/06 14:02:54;;;;;;;7.53;4.40;;;;;;;;;;5078264;28;20257;-27
2023/03/06 14:05:22;;;;;;;7.13;4.50;;;;;;;;;;5093558;28;20200;-31
2023/03/06 14:08:02;;;;;;;6.50;3.73;;;;;;;;;;5079690;28;20255;-31
2023/03/06 14:10:31;;;;;;;6.30;4.07;;;;;;;;;;5086742;28;20201;-32
2023/03/06 14:13:03;;;;;;;5.40;3.97;;;;;;;;;;5089103;28;20226;-28
2023/03/06 14:15:36;;;;;;;5.47;3.73;;;;;;;;;;5085768;28;20200;-27
2023/03/06 14:18:05;;;;;;;6.97;4.03;;;;;;;;;;5086606;28;20636;-29
2023/03/06 14:20:36;;;;;;;6.97;4.20;;;;;;;;;;5094713;28;20232;-33
2023/03/06 14:23:23;;;;;;;6.60;3.80;;;;;;;;;;5083571;28;20205;-29
2023/03/06 14:25:54;;;;;;;5.27;4.27;;;;;;;;;;5089394;28;20652;-30
2023/03/06 14:28:22;;;;;;;5.17;3.83;;;;;;;;;;5079869;28;20228;-28
2023/03/06 14:30:50;;;;;;;7.07;4.00;;;;;;;;;;5095880;28;20212;-28
2023/03/06 14:33:24;;;;;;;8.50;4.77;;;;;;;;;;5084476;28;20228;-29
2023/03/06 14:35:52;;;;;;;7.07;4.00;;;;;;;;;;5072611;28;20201;-30
2023/03/06 14:38:20;;;;;;;7.83;4.27;;;;;;;;;;5078420;28;20221;-30
2023/03/06 14:40:48;;;;;;;7.27;4.70;;;;;;;;;;5084608;28;20208;-30
2023/03/06 14:43:22;;;;;;;7.90;4.30;;;;;;;;;;5074695;28;20198;-27
2023/03/06 14:45:50;;;;;;;7.33;4.30;;;;;;;;;;5083023;28;20680;-31